createdAt,value
2022-09-11T00:01:14.312Z,0.30
2022-09-11T00:06:28.871Z,0.25
2022-09-11T00:11:36.561Z,0.30
2022-09-11T00:16:44.589Z,0.28
2022-09-11T00:21:49.979Z,0.15
2022-09-11T00:26:54.506Z,0.20
2022-09-11T00:31:58.161Z,0.30
2022-09-11T00:37:01.842Z,0.30
2022-09-11T00:42:06.818Z,0.30
2022-09-11T00:47:10.986Z,0.30
2022-09-11T00:52:18.750Z,0.30
2022-09-11T00:57:27.304Z,0.40
2022-09-11T01:02:34.968Z,0.30
2022-09-11T01:07:39.629Z,0.20
2022-09-11T01:12:51.202Z,0.52
2022-09-11T01:18:02.368Z,0.30
2022-09-11T01:23:27.389Z,0.30
2022-09-11T01:28:38.597Z,0.40
2022-09-11T01:33:47.182Z,0.30
2022-09-11T01:38:54.317Z,0.20
2022-09-11T01:44:03.881Z,0.43
2022-09-11T01:49:12.940Z,0.30
2022-09-11T01:54:19.969Z,0.30
2022-09-11T01:59:28.716Z,0.40
2022-09-11T02:04:39.796Z,0.50
2022-09-11T02:09:48.591Z,0.20
2022-09-11T02:14:54.825Z,0.40
2022-09-11T02:20:00.797Z,0.30
2022-09-11T02:25:04.605Z,0.30
2022-09-11T02:30:11.401Z,0.40
2022-09-11T02:35:16.398Z,0.30
2022-09-11T02:40:46.566Z,0.60
2022-09-11T02:46:01.792Z,0.40
2022-09-11T02:51:17.597Z,0.40
2022-09-11T02:56:29.833Z,0.30
2022-09-11T03:01:49.326Z,0.55
2022-09-11T03:06:53.677Z,0.40
2022-09-11T03:11:57.246Z,0.50
2022-09-11T03:17:02.179Z,0.30
2022-09-11T03:22:05.464Z,0.40
2022-09-11T03:27:08.838Z,0.35
2022-09-11T03:32:13.523Z,0.35
2022-09-11T03:37:18.259Z,0.40
2022-09-11T03:42:22.827Z,0.30
2022-09-11T03:47:27.439Z,0.30
2022-09-11T03:52:31.717Z,0.40
2022-09-11T03:57:35.335Z,0.30
2022-09-11T04:02:39.908Z,0.30
2022-09-11T04:07:43.384Z,0.30
2022-09-11T04:12:47.482Z,0.30
2022-09-11T04:17:53.802Z,0.40
2022-09-11T04:22:59.003Z,0.35
2022-09-11T04:28:02.557Z,0.22
2022-09-11T04:33:07.395Z,0.40
2022-09-11T04:38:10.892Z,0.30
2022-09-11T04:43:15.686Z,0.38
2022-09-11T04:48:22.551Z,0.40
2022-09-11T04:53:25.896Z,0.50
2022-09-11T04:58:29.317Z,0.50
2022-09-11T05:03:34.378Z,0.43
2022-09-11T05:08:37.925Z,0.43
2022-09-11T05:13:43.748Z,0.40
2022-09-11T05:18:53.165Z,0.38
2022-09-11T05:24:01.376Z,0.55
2022-09-11T05:29:09.265Z,0.50
2022-09-11T05:34:22.459Z,0.22
2022-09-11T05:39:27.406Z,0.35
2022-09-11T05:44:32.006Z,0.30
2022-09-11T05:49:37.846Z,0.35
2022-09-11T05:54:41.167Z,0.40
2022-09-11T05:59:44.764Z,0.50
2022-09-11T06:04:50.274Z,0.40
2022-09-11T06:09:57.773Z,0.47
2022-09-11T06:15:03.417Z,0.50
2022-09-11T06:20:12.519Z,0.50
2022-09-11T06:25:19.890Z,0.82
2022-09-11T06:30:23.396Z,0.40
2022-09-11T06:35:28.381Z,0.43
2022-09-11T06:40:31.946Z,0.80
2022-09-11T06:45:35.992Z,0.70
2022-09-11T06:50:40.951Z,0.57
2022-09-11T06:55:44.429Z,0.50
2022-09-11T07:00:51.690Z,0.40
2022-09-11T07:05:56.929Z,0.70
2022-09-11T07:11:04.840Z,0.50
2022-09-11T07:16:12.681Z,0.50
2022-09-11T07:21:22.607Z,0.50
2022-09-11T07:26:29.981Z,1.15
2022-09-11T07:31:40.229Z,0.70
2022-09-11T07:36:45.795Z,0.55
2022-09-11T07:41:49.472Z,1.10
2022-09-11T07:46:59.000Z,0.60
2022-09-11T07:52:04.392Z,1.00
2022-09-11T07:57:19.956Z,0.80
2022-09-11T08:02:23.792Z,0.88
2022-09-11T08:07:28.705Z,0.90
2022-09-11T08:12:32.350Z,0.63
2022-09-11T08:17:35.592Z,0.80
2022-09-11T08:22:40.216Z,0.90
2022-09-11T08:27:44.712Z,0.70
2022-09-11T08:32:50.898Z,0.70
2022-09-11T08:37:55.927Z,0.63
2022-09-11T08:43:03.162Z,1.50
2022-09-11T08:48:09.343Z,0.70
2022-09-11T08:53:17.324Z,0.90
2022-09-11T08:58:32.489Z,1.10
2022-09-11T09:04:01.754Z,0.80
2022-09-11T09:09:15.202Z,0.60
2022-09-11T09:14:30.335Z,0.85
2022-09-11T09:19:40.936Z,0.60
2022-09-11T09:24:50.142Z,0.70
2022-09-11T09:29:55.868Z,0.90
2022-09-11T09:35:04.901Z,1.10
2022-09-11T09:40:11.212Z,0.70
2022-09-11T09:45:43.776Z,0.57
2022-09-11T09:50:47.153Z,0.80
2022-09-11T09:55:53.139Z,0.70
2022-09-11T10:00:56.358Z,0.65
2022-09-11T10:06:00.796Z,0.80
2022-09-11T10:11:07.539Z,0.90
2022-09-11T10:16:21.231Z,0.70
2022-09-11T10:21:29.656Z,0.85
2022-09-11T10:26:39.426Z,0.65
2022-09-11T10:31:50.025Z,0.80
2022-09-11T10:36:55.058Z,0.93
2022-09-11T10:42:05.566Z,0.82
2022-09-11T10:47:17.474Z,0.73
2022-09-11T10:52:22.333Z,0.73
2022-09-11T10:57:30.965Z,0.90
2022-09-11T11:02:36.282Z,0.80
2022-09-11T11:08:12.213Z,0.90
2022-09-11T11:13:36.134Z,0.60
2022-09-11T11:18:54.845Z,0.80
2022-09-11T11:24:08.343Z,0.73
2022-09-11T11:29:32.132Z,0.90
2022-09-11T11:34:55.107Z,0.88
2022-09-11T11:40:03.298Z,0.60
2022-09-11T11:45:18.071Z,0.65
2022-09-11T11:50:31.618Z,0.70
2022-09-11T11:55:45.805Z,0.50
2022-09-11T12:01:01.745Z,0.70
2022-09-11T12:06:07.555Z,0.60
2022-09-11T12:11:13.166Z,0.70
2022-09-11T12:16:21.466Z,0.95
2022-09-11T12:21:57.792Z,0.80
2022-09-11T12:27:38.475Z,0.60
2022-09-11T12:32:45.184Z,0.60
2022-09-11T12:37:56.339Z,0.40
2022-09-11T12:43:16.959Z,0.40
2022-09-11T12:48:26.020Z,0.50
2022-09-11T12:53:33.386Z,0.40
2022-09-11T12:58:40.337Z,0.43
2022-09-11T13:03:57.710Z,0.30
2022-09-11T13:09:02.464Z,0.43
2022-09-11T13:14:07.433Z,0.30
2022-09-11T13:19:17.054Z,0.30
2022-09-11T13:24:28.051Z,0.40
2022-09-11T13:29:33.838Z,0.60
2022-09-11T13:34:39.368Z,0.55
2022-09-11T13:39:44.322Z,0.50
2022-09-11T13:44:50.457Z,0.60
2022-09-11T13:49:57.964Z,0.50
2022-09-11T13:55:05.065Z,0.40
2022-09-11T14:00:41.778Z,0.40
2022-09-11T14:05:54.169Z,0.40
2022-09-11T14:11:01.228Z,0.30
2022-09-11T14:16:08.937Z,0.20
2022-09-11T14:21:18.218Z,0.40
2022-09-11T14:26:24.368Z,0.50
2022-09-11T14:31:38.536Z,0.40
2022-09-11T14:36:45.608Z,0.30
2022-09-11T14:41:48.817Z,0.57
2022-09-11T14:46:52.052Z,0.40
2022-09-11T14:51:58.693Z,0.30
2022-09-11T14:57:03.741Z,0.30
2022-09-11T15:02:11.504Z,0.30
2022-09-11T15:07:18.792Z,0.30
2022-09-11T15:12:22.931Z,0.35
2022-09-11T15:17:31.616Z,0.30
2022-09-11T15:22:36.556Z,0.30
2022-09-11T15:27:39.837Z,0.30
2022-09-11T15:32:42.969Z,0.30
2022-09-11T15:37:48.158Z,0.30
2022-09-11T15:42:52.212Z,0.40
2022-09-11T15:47:55.510Z,0.60
2022-09-11T15:53:01.976Z,0.68
2022-09-11T15:58:05.213Z,0.57
2022-09-11T16:03:08.395Z,0.50
2022-09-11T16:08:13.020Z,0.50
2022-09-11T16:13:16.330Z,0.70
2022-09-11T16:18:19.618Z,0.50
2022-09-11T16:23:24.178Z,0.63
2022-09-11T16:28:27.339Z,0.60
2022-09-11T16:33:31.233Z,0.60
2022-09-11T16:38:39.950Z,0.50
2022-09-11T16:43:44.802Z,0.70
2022-09-11T16:48:53.278Z,0.70
2022-09-11T16:53:58.767Z,0.80
2022-09-11T16:59:02.258Z,0.75
2022-09-11T17:04:05.794Z,1.50
2022-09-11T17:09:10.478Z,1.00
2022-09-11T17:14:14.566Z,0.80
2022-09-11T17:19:17.859Z,0.77
2022-09-11T17:24:24.218Z,1.10
2022-09-11T17:29:27.929Z,1.05
2022-09-11T17:34:31.403Z,1.20
2022-09-11T17:39:36.059Z,1.30
2022-09-11T17:44:41.682Z,1.10
2022-09-11T17:49:45.536Z,1.05
2022-09-11T17:54:50.729Z,0.80
2022-09-11T17:59:56.860Z,1.08
2022-09-11T18:05:00.744Z,0.90
2022-09-11T18:10:06.378Z,1.20
2022-09-11T18:15:11.594Z,0.70
2022-09-11T18:20:17.747Z,0.90
2022-09-11T18:25:25.508Z,1.08
2022-09-11T18:30:29.849Z,0.80
2022-09-11T18:35:34.757Z,1.08
2022-09-11T18:40:39.979Z,0.90
2022-09-11T18:45:43.483Z,0.50
2022-09-11T18:50:46.942Z,0.88
2022-09-11T18:56:00.503Z,0.85
2022-09-11T19:01:07.892Z,0.73
2022-09-11T19:06:13.029Z,0.60
2022-09-11T19:11:19.799Z,0.70
2022-09-11T19:16:23.768Z,0.65
2022-09-11T19:21:27.546Z,0.60
2022-09-11T19:26:35.040Z,0.80
2022-09-11T19:31:39.632Z,0.60
2022-09-11T19:36:43.248Z,0.85
2022-09-11T19:41:48.439Z,0.65
2022-09-11T19:46:54.592Z,0.60
2022-09-11T19:52:00.305Z,0.95
2022-09-11T19:57:06.735Z,0.85
2022-09-11T20:02:12.180Z,0.90
2022-09-11T20:07:15.367Z,0.82
2022-09-11T20:12:19.847Z,1.00
2022-09-11T20:17:23.032Z,1.30
2022-09-11T20:22:26.372Z,0.90
2022-09-11T20:27:31.134Z,1.08
2022-09-11T20:32:37.904Z,0.82
2022-09-11T20:37:41.127Z,0.82
2022-09-11T20:42:46.043Z,0.80
2022-09-11T20:47:49.295Z,0.73
2022-09-11T20:52:52.483Z,0.95
2022-09-11T20:57:57.346Z,1.00
2022-09-11T21:03:00.686Z,0.98
2022-09-11T21:08:04.544Z,1.20
2022-09-11T21:13:10.898Z,0.90
2022-09-11T21:18:14.989Z,0.93
2022-09-11T21:23:18.142Z,1.10
2022-09-11T21:28:22.771Z,1.17
2022-09-11T21:33:26.170Z,1.35
2022-09-11T21:38:30.161Z,1.13
2022-09-11T21:43:35.032Z,2.17
2022-09-11T21:48:40.296Z,1.15
2022-09-11T21:53:45.424Z,1.30
2022-09-11T21:58:51.276Z,1.10
2022-09-11T22:03:55.647Z,1.20
2022-09-11T22:08:59.446Z,1.20
2022-09-11T22:14:04.173Z,1.08
2022-09-11T22:19:09.455Z,1.00
2022-09-11T22:24:12.601Z,1.40
2022-09-11T22:29:17.514Z,1.33
2022-09-11T22:34:20.702Z,1.40
2022-09-11T22:39:23.983Z,1.25
2022-09-11T22:44:28.672Z,1.60
2022-09-11T22:49:31.854Z,1.27
2022-09-11T22:54:35.237Z,2.08
2022-09-11T22:59:39.804Z,1.30
2022-09-11T23:05:03.485Z,1.20
2022-09-11T23:10:07.675Z,1.33
2022-09-11T23:15:12.674Z,1.40
2022-09-11T23:20:15.985Z,1.45
2022-09-11T23:25:20.125Z,1.23
2022-09-11T23:30:24.606Z,1.30
2022-09-11T23:35:27.723Z,1.50
2022-09-11T23:40:33.417Z,1.15
2022-09-11T23:45:38.206Z,1.10
2022-09-11T23:50:42.051Z,1.20
2022-09-11T23:55:48.895Z,1.02
